createdAt,value
2023-04-14T00:01:38.902Z,2.08
2023-04-14T00:04:05.906Z,2.00
2023-04-14T00:06:32.950Z,2.13
2023-04-14T00:08:59.942Z,2.17
2023-04-14T00:11:27.288Z,2.20
2023-04-14T00:13:55.929Z,1.67
2023-04-14T00:16:23.763Z,1.67
2023-04-14T00:18:50.474Z,1.98
2023-04-14T00:21:17.151Z,1.92
2023-04-14T00:23:43.800Z,2.15
2023-04-14T00:26:10.534Z,2.03
2023-04-14T00:28:37.245Z,2.05
2023-04-14T00:31:04.015Z,2.20
2023-04-14T00:33:30.729Z,2.33
2023-04-14T00:35:57.573Z,2.20
2023-04-14T00:38:25.349Z,2.40
2023-04-14T00:40:52.038Z,2.45
2023-04-14T00:43:19.621Z,2.47
2023-04-14T00:45:48.057Z,2.65
2023-04-14T00:48:17.348Z,2.47
2023-04-14T00:50:44.424Z,2.60
2023-04-14T00:53:12.636Z,2.70
2023-04-14T00:55:41.284Z,2.95
2023-04-14T00:58:08.734Z,2.78
2023-04-14T01:00:36.202Z,3.30
2023-04-14T01:03:03.374Z,2.90
2023-04-14T01:05:30.613Z,3.03
2023-04-14T01:07:57.780Z,3.10
2023-04-14T01:10:30.885Z,3.45
2023-04-14T01:13:33.522Z,3.65
2023-04-14T01:16:05.314Z,3.33
2023-04-14T01:18:59.042Z,3.92
2023-04-14T01:21:33.078Z,4.20
2023-04-14T01:24:02.791Z,3.95
2023-04-14T01:26:31.179Z,4.22
2023-04-14T01:29:35.234Z,4.60
2023-04-14T01:32:11.449Z,5.22
2023-04-14T01:34:46.625Z,5.78
2023-04-14T01:37:17.843Z,5.65
2023-04-14T01:39:52.964Z,6.55
2023-04-14T01:42:25.257Z,6.38
2023-04-14T01:44:59.764Z,6.10
2023-04-14T01:49:54.228Z,6.40
2023-04-14T01:52:22.567Z,6.25
2023-04-14T01:54:52.848Z,6.40
2023-04-14T01:57:22.826Z,6.57
2023-04-14T01:59:52.588Z,6.40
2023-04-14T02:02:21.480Z,6.80
2023-04-14T02:04:49.392Z,6.90
2023-04-14T02:07:18.372Z,6.40
2023-04-14T02:09:46.134Z,5.65
2023-04-14T02:12:13.026Z,5.72
2023-04-14T02:14:42.691Z,5.43
2023-04-14T02:17:13.438Z,5.85
2023-04-14T02:19:43.997Z,5.43
2023-04-14T02:22:10.857Z,5.30
2023-04-14T02:24:37.818Z,5.45
2023-04-14T02:27:10.554Z,5.60
2023-04-14T02:29:41.198Z,5.40
2023-04-14T02:32:11.710Z,4.82
2023-04-14T02:34:47.871Z,5.30
2023-04-14T02:37:21.595Z,4.60
2023-04-14T02:39:57.029Z,4.70
2023-04-14T02:42:27.425Z,4.13
2023-04-14T02:45:03.086Z,4.40
2023-04-14T02:47:33.699Z,4.68
2023-04-14T02:50:03.122Z,4.47
2023-04-14T02:52:32.155Z,4.32
2023-04-14T02:55:00.240Z,4.47
2023-04-14T02:57:27.792Z,4.47
2023-04-14T02:59:55.306Z,4.13
2023-04-14T03:02:22.838Z,4.10
2023-04-14T03:04:49.885Z,3.80
2023-04-14T03:07:19.388Z,3.65
2023-04-14T03:09:49.200Z,3.90
2023-04-14T03:12:17.602Z,3.97
2023-04-14T03:14:45.439Z,3.70
2023-04-14T03:17:14.967Z,3.78
2023-04-14T03:19:44.214Z,3.60
2023-04-14T03:22:12.491Z,4.00
2023-04-14T03:24:40.408Z,4.20
2023-04-14T03:27:22.968Z,3.75
2023-04-14T03:29:53.771Z,3.70
2023-04-14T03:32:26.409Z,4.00
2023-04-14T03:34:57.955Z,3.63
2023-04-14T03:37:27.320Z,4.10
2023-04-14T03:40:00.445Z,3.92
2023-04-14T03:42:29.413Z,3.83
2023-04-14T03:44:58.537Z,3.80
2023-04-14T03:47:28.613Z,4.40
2023-04-14T03:50:01.368Z,3.92
2023-04-14T03:52:33.066Z,4.43
2023-04-14T03:55:06.178Z,5.90
2023-04-14T03:57:33.906Z,6.18
2023-04-14T04:00:05.010Z,6.03
2023-04-14T04:02:33.272Z,5.80
2023-04-14T04:05:03.537Z,4.90
2023-04-14T04:07:32.139Z,4.80
2023-04-14T04:09:59.930Z,4.50
2023-04-14T04:12:28.070Z,4.72
2023-04-14T04:14:54.846Z,4.55
2023-04-14T04:17:24.308Z,4.28
2023-04-14T04:19:53.580Z,4.68
2023-04-14T04:22:21.942Z,4.25
2023-04-14T04:24:50.614Z,4.03
2023-04-14T04:27:27.815Z,4.80
2023-04-14T04:29:55.684Z,4.60
2023-04-14T04:32:23.639Z,4.75
2023-04-14T04:34:51.254Z,4.60
2023-04-14T04:37:19.353Z,5.00
2023-04-14T04:39:48.115Z,4.95
2023-04-14T04:42:14.790Z,5.00
2023-04-14T04:44:41.792Z,4.95
2023-04-14T04:47:09.353Z,4.45
2023-04-14T04:49:36.070Z,5.03
2023-04-14T04:52:02.794Z,5.20
2023-04-14T04:54:29.718Z,5.05
2023-04-14T04:56:57.724Z,5.10
2023-04-14T04:59:25.023Z,4.80
2023-04-14T05:01:52.195Z,5.43
2023-04-14T05:04:19.125Z,5.20
2023-04-14T05:06:45.902Z,4.32
2023-04-14T05:09:12.810Z,4.55
2023-04-14T05:11:39.517Z,4.80
2023-04-14T05:14:06.467Z,4.85
2023-04-14T05:16:33.544Z,5.20
2023-04-14T05:19:00.790Z,5.13
2023-04-14T05:21:29.985Z,5.22
2023-04-14T05:23:56.871Z,5.82
2023-04-14T05:28:53.341Z,5.63
2023-04-14T05:31:20.460Z,6.20
2023-04-14T05:33:47.349Z,6.00
2023-04-14T05:36:14.135Z,5.70
2023-04-14T05:38:41.098Z,5.18
2023-04-14T05:41:07.924Z,5.40
2023-04-14T05:43:34.837Z,5.65
2023-04-14T05:46:01.913Z,6.38
2023-04-14T05:48:30.750Z,6.25
2023-04-14T05:50:58.358Z,6.55
2023-04-14T05:53:25.427Z,6.05
2023-04-14T05:55:52.740Z,5.38
2023-04-14T05:58:19.963Z,4.80
2023-04-14T06:00:46.850Z,5.35
2023-04-14T06:03:13.849Z,5.82
2023-04-14T06:05:41.009Z,5.00
2023-04-14T06:08:07.733Z,4.82
2023-04-14T06:10:35.875Z,4.50
2023-04-14T06:13:02.629Z,4.20
2023-04-14T06:15:29.833Z,4.32
2023-04-14T06:17:56.798Z,4.38
2023-04-14T06:20:23.677Z,4.18
2023-04-14T06:22:50.499Z,4.90
2023-04-14T06:25:17.559Z,5.00
2023-04-14T06:27:44.362Z,4.30
2023-04-14T06:30:11.919Z,4.07
2023-04-14T06:32:38.823Z,4.35
2023-04-14T06:35:06.032Z,4.20
2023-04-14T06:37:32.758Z,4.18
2023-04-14T06:39:59.437Z,4.32
2023-04-14T06:42:26.232Z,4.43
2023-04-14T06:44:53.000Z,4.13
2023-04-14T06:47:21.074Z,4.57
2023-04-14T06:49:47.982Z,4.13
2023-04-14T06:52:14.768Z,4.03
2023-04-14T06:54:42.303Z,3.95
2023-04-14T06:57:09.372Z,3.67
2023-04-14T06:59:36.735Z,3.33
2023-04-14T07:02:03.632Z,3.08
2023-04-14T07:04:30.572Z,3.03
2023-04-14T07:07:03.351Z,2.70
2023-04-14T07:09:30.240Z,2.58
2023-04-14T07:11:57.633Z,2.97
2023-04-14T07:14:24.908Z,2.75
2023-04-14T07:16:52.891Z,2.55
2023-04-14T07:19:20.095Z,2.58
2023-04-14T07:21:47.348Z,2.90
2023-04-14T07:24:15.655Z,2.90
2023-04-14T07:26:44.224Z,2.83
2023-04-14T07:29:11.129Z,2.30
2023-04-14T07:31:38.935Z,2.30
2023-04-14T07:34:06.327Z,2.45
2023-04-14T07:36:33.257Z,2.40
2023-04-14T07:39:00.247Z,2.67
2023-04-14T07:41:28.118Z,2.10
2023-04-14T07:43:55.829Z,2.05
2023-04-14T07:46:22.792Z,2.55
2023-04-14T07:48:49.621Z,1.75
2023-04-14T07:51:16.698Z,1.65
2023-04-14T07:53:45.144Z,1.80
2023-04-14T07:56:12.559Z,1.70
2023-04-14T07:58:39.324Z,2.08
2023-04-14T08:01:06.513Z,1.92
2023-04-14T08:03:33.634Z,2.05
2023-04-14T08:06:00.465Z,2.38
2023-04-14T08:08:28.257Z,2.10
2023-04-14T08:10:54.994Z,2.45
2023-04-14T08:13:21.814Z,2.47
2023-04-14T08:15:48.929Z,2.28
2023-04-14T08:18:15.720Z,2.20
2023-04-14T08:20:42.464Z,2.20
2023-04-14T08:23:09.252Z,2.92
2023-04-14T08:25:36.068Z,2.50
2023-04-14T08:28:02.765Z,2.20
2023-04-14T08:30:29.787Z,2.20
2023-04-14T08:32:59.178Z,1.83
2023-04-14T08:35:38.313Z,1.75
2023-04-14T08:38:07.514Z,1.75
2023-04-14T08:40:40.159Z,1.65
2023-04-14T08:43:07.483Z,2.22
2023-04-14T08:45:35.175Z,1.67
2023-04-14T08:48:06.184Z,2.00
2023-04-14T08:50:43.571Z,1.75
2023-04-14T08:53:11.016Z,2.05
2023-04-14T08:55:41.908Z,1.98
2023-04-14T08:58:10.801Z,1.70
2023-04-14T09:00:40.327Z,1.80
2023-04-14T09:03:09.285Z,2.10
2023-04-14T09:05:36.620Z,2.00
2023-04-14T09:08:04.353Z,1.60
2023-04-14T09:10:31.821Z,1.90
2023-04-14T09:12:58.842Z,1.50
2023-04-14T09:15:28.899Z,1.60
2023-04-14T09:17:56.423Z,1.77
2023-04-14T09:20:38.392Z,2.00
2023-04-14T09:23:10.885Z,1.65
2023-04-14T09:25:41.732Z,1.48
2023-04-14T09:28:08.592Z,1.88
2023-04-14T09:30:35.702Z,1.77
2023-04-14T09:33:06.061Z,1.95
2023-04-14T09:35:47.607Z,1.40
2023-04-14T09:38:16.146Z,1.75
2023-04-14T09:40:47.428Z,1.30
2023-04-14T09:43:25.455Z,1.70
2023-04-14T09:45:53.055Z,1.73
2023-04-14T09:48:21.020Z,1.23
2023-04-14T09:51:09.905Z,1.52
2023-04-14T09:53:38.026Z,1.50
2023-04-14T09:56:09.683Z,1.65
2023-04-14T09:58:39.145Z,1.20
2023-04-14T10:01:14.800Z,1.63
2023-04-14T10:03:49.427Z,1.50
2023-04-14T10:06:21.261Z,1.42
2023-04-14T10:08:50.141Z,1.90
2023-04-14T10:11:29.512Z,1.60
2023-04-14T10:14:02.030Z,1.50
2023-04-14T10:16:28.940Z,1.33
2023-04-14T10:18:57.641Z,1.33
2023-04-14T10:21:25.346Z,1.50
2023-04-14T10:23:52.358Z,1.50
2023-04-14T10:26:19.669Z,1.45
2023-04-14T10:28:50.084Z,1.58
2023-04-14T10:31:23.823Z,1.70
2023-04-14T10:33:50.839Z,1.10
2023-04-14T10:36:29.175Z,1.17
2023-04-14T10:39:02.659Z,1.35
2023-04-14T10:41:49.563Z,1.63
2023-04-14T10:44:29.794Z,1.38
2023-04-14T10:46:57.683Z,1.50
2023-04-14T10:49:35.860Z,1.35
2023-04-14T10:52:27.460Z,1.33
2023-04-14T10:54:57.297Z,1.58
2023-04-14T10:57:28.613Z,1.38
2023-04-14T10:59:59.807Z,1.17
2023-04-14T11:02:31.351Z,1.25
2023-04-14T11:05:05.676Z,1.30
2023-04-14T11:07:44.620Z,1.40
2023-04-14T11:10:17.639Z,1.40
2023-04-14T11:12:45.528Z,1.38
2023-04-14T11:15:12.806Z,1.20
2023-04-14T11:17:40.765Z,1.20
2023-04-14T11:20:18.540Z,1.40
2023-04-14T11:22:47.497Z,1.48
2023-04-14T11:25:15.871Z,1.38
2023-04-14T11:27:43.644Z,1.00
2023-04-14T11:30:21.330Z,1.55
2023-04-14T11:32:57.746Z,1.40
2023-04-14T11:35:26.744Z,1.13
2023-04-14T11:37:57.954Z,1.50
2023-04-14T11:40:29.442Z,1.70
2023-04-14T11:42:57.924Z,1.23
2023-04-14T11:45:31.740Z,1.50
2023-04-14T11:48:04.170Z,1.20
2023-04-14T11:50:33.343Z,1.50
2023-04-14T11:53:00.842Z,1.27
2023-04-14T11:55:28.488Z,1.05
2023-04-14T11:57:58.402Z,1.00
2023-04-14T12:00:25.439Z,1.02
2023-04-14T12:02:52.492Z,1.27
2023-04-14T12:05:25.561Z,1.23
2023-04-14T12:07:58.985Z,1.20
2023-04-14T12:10:26.467Z,1.20
2023-04-14T12:13:10.518Z,1.55
2023-04-14T12:15:41.554Z,1.70
2023-04-14T12:18:10.620Z,1.27
2023-04-14T12:20:46.563Z,1.40
2023-04-14T12:23:13.570Z,1.10
2023-04-14T12:25:40.529Z,1.52
2023-04-14T12:28:08.474Z,1.17
2023-04-14T12:30:36.683Z,1.42
2023-04-14T12:33:12.157Z,0.88
2023-04-14T12:35:40.378Z,1.00
2023-04-14T12:38:14.617Z,1.20
2023-04-14T12:40:47.955Z,1.17
2023-04-14T12:43:16.864Z,1.17
2023-04-14T12:45:45.375Z,1.13
2023-04-14T12:48:18.698Z,0.80
2023-04-14T12:50:45.629Z,1.00
2023-04-14T12:53:29.145Z,1.08
2023-04-14T12:56:27.414Z,1.20
2023-04-14T12:58:54.384Z,1.48
2023-04-14T13:01:22.504Z,1.10
2023-04-14T13:03:52.006Z,0.90
2023-04-14T13:06:24.023Z,1.30
2023-04-14T13:08:52.571Z,1.05
2023-04-14T13:11:20.693Z,1.30
2023-04-14T13:13:47.774Z,1.05
2023-04-14T13:16:17.520Z,1.10
2023-04-14T13:18:45.609Z,1.00
2023-04-14T13:21:12.765Z,1.00
2023-04-14T13:23:40.037Z,1.20
2023-04-14T13:26:06.868Z,1.48
2023-04-14T13:28:33.623Z,1.90
2023-04-14T13:31:01.032Z,1.98
2023-04-14T13:33:27.838Z,1.80
2023-04-14T13:35:55.707Z,1.70
2023-04-14T13:38:22.859Z,1.80
2023-04-14T13:40:49.878Z,1.60
2023-04-14T13:43:18.704Z,1.73
2023-04-14T13:45:46.546Z,1.40
2023-04-14T13:48:13.797Z,2.25
2023-04-14T13:50:40.714Z,2.00
2023-04-14T13:53:07.530Z,1.75
2023-04-14T13:55:36.188Z,1.80
2023-04-14T13:58:03.339Z,1.67
2023-04-14T14:00:30.406Z,1.88
2023-04-14T14:02:57.359Z,1.80
2023-04-14T14:05:24.298Z,1.40
2023-04-14T14:07:51.318Z,2.05
2023-04-14T14:10:18.116Z,1.80
2023-04-14T14:12:44.972Z,1.67
2023-04-14T14:15:12.424Z,1.40
2023-04-14T14:17:39.294Z,1.90
2023-04-14T14:20:07.522Z,1.83
2023-04-14T14:22:34.305Z,1.75
2023-04-14T14:25:15.241Z,1.60
2023-04-14T14:27:45.784Z,1.90
2023-04-14T14:30:13.066Z,1.67
2023-04-14T14:32:39.870Z,1.90
2023-04-14T14:35:07.022Z,2.35
2023-04-14T14:37:33.858Z,1.90
2023-04-14T14:40:01.081Z,2.10
2023-04-14T14:42:27.792Z,1.67
2023-04-14T14:44:54.521Z,1.60
2023-04-14T14:47:21.436Z,1.52
2023-04-14T14:49:59.494Z,1.67
2023-04-14T14:52:34.693Z,2.17
2023-04-14T14:55:02.309Z,1.73
2023-04-14T14:57:30.545Z,1.70
2023-04-14T14:59:57.946Z,2.00
2023-04-14T15:02:25.587Z,1.50
2023-04-14T15:04:53.453Z,1.60
2023-04-14T15:07:20.840Z,1.80
2023-04-14T15:09:49.186Z,1.50
2023-04-14T15:12:16.297Z,1.63
2023-04-14T15:14:43.055Z,1.60
2023-04-14T15:17:09.812Z,1.55
2023-04-14T15:19:37.524Z,1.30
2023-04-14T15:22:04.195Z,1.20
2023-04-14T15:24:30.958Z,1.60
2023-04-14T15:26:57.636Z,1.38
2023-04-14T15:29:27.011Z,1.67
2023-04-14T15:31:54.057Z,1.98
2023-04-14T15:34:21.501Z,1.73
2023-04-14T15:36:48.577Z,2.50
2023-04-14T15:39:15.484Z,3.30
2023-04-14T15:41:42.212Z,1.90
2023-04-14T15:44:08.947Z,1.60
2023-04-14T15:46:35.611Z,1.40
2023-04-14T15:49:02.345Z,2.00
2023-04-14T15:51:29.073Z,1.80
2023-04-14T15:53:55.751Z,1.77
2023-04-14T15:56:23.561Z,1.90
2023-04-14T15:58:50.592Z,2.30
2023-04-14T16:01:17.649Z,2.00
2023-04-14T16:03:44.934Z,1.60
2023-04-14T16:06:11.881Z,1.70
2023-04-14T16:08:38.932Z,1.70
2023-04-14T16:11:05.835Z,1.58
2023-04-14T16:13:32.797Z,1.88
2023-04-14T16:15:59.517Z,1.20
2023-04-14T16:18:26.680Z,1.90
2023-04-14T16:20:53.455Z,1.90
2023-04-14T16:23:20.689Z,2.92
2023-04-14T16:25:50.602Z,3.67
2023-04-14T16:28:17.555Z,3.03
2023-04-14T16:30:45.870Z,4.32
2023-04-14T16:33:13.098Z,5.00
2023-04-14T16:35:40.167Z,5.03
2023-04-14T16:38:08.766Z,5.88
2023-04-14T16:40:36.605Z,5.75
2023-04-14T16:43:04.110Z,3.88
2023-04-14T16:45:32.188Z,3.70
2023-04-14T16:47:59.271Z,3.90
2023-04-14T16:50:26.392Z,2.45
2023-04-14T16:52:53.223Z,1.90
2023-04-14T16:55:19.972Z,1.70
2023-04-14T16:57:46.939Z,1.90
2023-04-14T17:00:14.209Z,1.85
2023-04-14T17:02:41.303Z,1.83
2023-04-14T17:05:10.343Z,1.98
2023-04-14T17:07:37.221Z,2.15
2023-04-14T17:10:04.211Z,2.92
2023-04-14T17:12:30.951Z,2.40
2023-04-14T17:14:57.790Z,2.20
2023-04-14T17:17:24.589Z,3.90
2023-04-14T17:19:51.628Z,2.42
2023-04-14T17:22:18.482Z,2.25
2023-04-14T17:24:45.826Z,2.10
2023-04-14T17:27:13.056Z,2.25
2023-04-14T17:29:41.149Z,3.47
2023-04-14T17:32:08.355Z,2.90
2023-04-14T17:34:35.163Z,4.07
2023-04-14T17:37:02.195Z,3.40
2023-04-14T17:39:28.925Z,2.80
2023-04-14T17:41:56.933Z,2.72
2023-04-14T17:44:34.222Z,4.13
2023-04-14T17:47:12.905Z,2.28
2023-04-14T17:49:39.696Z,2.40
2023-04-14T17:52:07.791Z,3.22
2023-04-14T17:54:35.044Z,3.63
2023-04-14T17:57:02.072Z,4.55
2023-04-14T17:59:28.835Z,3.60
2023-04-14T18:01:55.721Z,5.85
2023-04-14T18:04:22.597Z,6.47
2023-04-14T18:06:50.193Z,6.00
2023-04-14T18:09:17.616Z,6.13
2023-04-14T18:11:44.363Z,4.60
2023-04-14T18:14:11.037Z,2.97
2023-04-14T18:16:37.932Z,3.85
2023-04-14T18:19:04.838Z,3.28
2023-04-14T18:21:31.561Z,4.25
2023-04-14T18:26:28.125Z,2.80
2023-04-14T18:28:56.483Z,2.60
2023-04-14T18:31:23.632Z,2.35
2023-04-14T18:33:51.078Z,2.25
2023-04-14T18:36:18.009Z,2.08
2023-04-14T18:38:44.855Z,1.85
2023-04-14T18:41:11.788Z,1.70
2023-04-14T18:43:38.573Z,1.95
2023-04-14T18:46:05.317Z,1.77
2023-04-14T18:48:32.020Z,1.55
2023-04-14T18:51:01.931Z,1.70
2023-04-14T18:53:28.867Z,1.52
2023-04-14T18:55:55.645Z,3.40
2023-04-14T18:58:22.963Z,2.58
2023-04-14T19:00:49.773Z,1.85
2023-04-14T19:03:16.960Z,1.90
2023-04-14T19:05:43.914Z,2.55
2023-04-14T19:08:10.738Z,2.20
2023-04-14T19:10:37.696Z,2.67
2023-04-14T19:13:04.437Z,4.50
2023-04-14T19:15:31.160Z,4.97
2023-04-14T19:17:58.039Z,4.95
2023-04-14T19:20:25.541Z,4.78
2023-04-14T19:22:52.369Z,4.00
2023-04-14T19:25:19.447Z,3.50
2023-04-14T19:27:46.126Z,2.70
2023-04-14T19:30:13.739Z,2.90
2023-04-14T19:32:41.489Z,3.00
2023-04-14T19:35:09.064Z,2.80
2023-04-14T19:37:36.098Z,2.92
2023-04-14T19:40:06.099Z,3.50
2023-04-14T19:42:33.354Z,3.15
2023-04-14T19:45:00.671Z,2.90
2023-04-14T19:47:27.860Z,3.45
2023-04-14T19:49:55.210Z,3.90
2023-04-14T19:52:22.400Z,3.83
2023-04-14T19:54:49.948Z,3.60
2023-04-14T19:57:17.034Z,4.97
2023-04-14T19:59:44.302Z,4.85
2023-04-14T20:02:13.368Z,4.00
2023-04-14T20:04:40.740Z,4.95
2023-04-14T20:07:07.758Z,4.03
2023-04-14T20:09:34.784Z,4.63
2023-04-14T20:12:02.428Z,8.57
2023-04-14T20:14:29.528Z,9.65
2023-04-14T20:16:56.850Z,8.88
2023-04-14T20:19:24.428Z,5.45
2023-04-14T20:21:51.233Z,6.97
2023-04-14T20:24:18.064Z,5.65
2023-04-14T20:26:45.205Z,5.57
2023-04-14T20:29:12.172Z,5.00
2023-04-14T20:31:39.454Z,6.10
2023-04-14T20:34:06.565Z,6.47
2023-04-14T20:36:35.972Z,6.35
2023-04-14T20:39:07.131Z,5.15
2023-04-14T20:41:34.752Z,4.47
2023-04-14T20:44:01.706Z,5.25
2023-04-14T20:46:29.045Z,4.82
2023-04-14T20:48:56.742Z,4.55
2023-04-14T20:51:23.616Z,4.22
2023-04-14T20:53:50.861Z,4.45
2023-04-14T20:56:17.904Z,4.22
2023-04-14T20:58:45.570Z,4.72
2023-04-14T21:01:12.649Z,4.68
2023-04-14T21:03:39.735Z,4.60
2023-04-14T21:06:06.692Z,5.10
2023-04-14T21:08:33.548Z,5.00
2023-04-14T21:11:15.679Z,5.15
2023-04-14T21:15:28.151Z,6.45
2023-04-14T21:16:32.793Z,5.93
2023-04-14T21:19:01.163Z,5.50
2023-04-14T21:21:28.081Z,4.88
2023-04-14T21:23:54.828Z,6.07
2023-04-14T21:26:22.013Z,5.72
2023-04-14T21:28:48.721Z,5.90
2023-04-14T21:31:15.817Z,5.75
2023-04-14T21:33:42.663Z,5.80
2023-04-14T21:36:09.821Z,4.78
2023-04-14T21:38:37.894Z,4.85
2023-04-14T21:41:04.905Z,5.03
2023-04-14T21:43:32.542Z,5.15
2023-04-14T21:45:59.425Z,5.15
2023-04-14T21:48:26.302Z,5.20
2023-04-14T21:50:53.039Z,4.75
2023-04-14T21:53:20.812Z,4.13
2023-04-14T21:55:47.634Z,4.07
2023-04-14T21:58:34.367Z,4.30
2023-04-14T22:01:01.558Z,4.68
2023-04-14T22:03:28.616Z,4.18
2023-04-14T22:05:55.492Z,3.75
2023-04-14T22:08:23.663Z,3.50
2023-04-14T22:10:50.371Z,3.60
2023-04-14T22:13:17.177Z,3.30
2023-04-14T22:15:43.980Z,2.90
2023-04-14T22:18:11.593Z,3.05
2023-04-14T22:20:39.320Z,3.00
2023-04-14T22:23:06.135Z,3.08
2023-04-14T22:25:33.249Z,3.58
2023-04-14T22:28:00.069Z,3.38
2023-04-14T22:30:28.351Z,3.30
2023-04-14T22:32:56.076Z,3.25
2023-04-14T22:35:23.379Z,3.05
2023-04-14T22:37:50.065Z,3.30
2023-04-14T22:40:17.128Z,3.50
2023-04-14T22:42:43.803Z,3.80
2023-04-14T22:45:10.681Z,3.35
2023-04-14T22:47:37.454Z,3.50
2023-04-14T22:50:04.487Z,3.65
2023-04-14T22:52:31.690Z,3.97
2023-04-14T22:54:58.421Z,3.92
2023-04-14T22:57:26.530Z,5.80
2023-04-14T22:59:53.457Z,5.53
2023-04-14T23:02:20.373Z,5.40
2023-04-14T23:04:48.060Z,5.88
2023-04-14T23:07:15.688Z,7.38
2023-04-14T23:09:42.668Z,7.90
2023-04-14T23:12:09.368Z,5.60
2023-04-14T23:14:36.445Z,4.05
2023-04-14T23:17:03.195Z,4.00
2023-04-14T23:19:30.074Z,3.58
2023-04-14T23:21:56.923Z,3.60
2023-04-14T23:24:23.726Z,3.50
2023-04-14T23:26:50.445Z,3.75
2023-04-14T23:29:17.212Z,3.60
2023-04-14T23:31:44.025Z,3.35
2023-04-14T23:34:11.107Z,3.30
2023-04-14T23:36:37.970Z,3.10
2023-04-14T23:39:05.833Z,3.10
2023-04-14T23:41:32.698Z,3.60
2023-04-14T23:43:59.432Z,3.78
2023-04-14T23:46:26.485Z,5.78
2023-04-14T23:48:53.507Z,7.13
2023-04-14T23:51:22.386Z,5.50
2023-04-14T23:53:49.414Z,4.57
2023-04-14T23:56:16.656Z,4.28
2023-04-14T23:58:43.890Z,3.47
